createdAt,value
2022-08-30T00:00:16.716Z,15.29
2022-08-30T00:02:43.761Z,15.08
2022-08-30T00:05:11.136Z,15.15
2022-08-30T00:07:38.055Z,15.12
2022-08-30T00:10:05.650Z,15.02
2022-08-30T00:12:32.848Z,14.96
2022-08-30T00:14:59.771Z,15.01
2022-08-30T00:17:26.722Z,15.08
2022-08-30T00:19:55.986Z,15.00
2022-08-30T00:22:22.804Z,14.94
2022-08-30T00:24:49.735Z,15.04
2022-08-30T00:27:16.995Z,14.88
2022-08-30T00:29:43.785Z,14.85
2022-08-30T00:32:11.363Z,14.84
2022-08-30T00:34:38.172Z,14.79
2022-08-30T00:37:04.935Z,14.89
2022-08-30T00:39:31.763Z,14.75
2022-08-30T00:41:58.507Z,14.87
2022-08-30T00:44:25.370Z,14.73
2022-08-30T00:46:52.096Z,14.71
2022-08-30T00:49:18.936Z,14.67
2022-08-30T00:51:46.183Z,14.64
2022-08-30T00:54:13.181Z,14.55
2022-08-30T00:56:40.027Z,14.48
2022-08-30T00:59:08.377Z,14.48
2022-08-30T01:01:37.757Z,14.50
2022-08-30T01:04:06.286Z,14.55
2022-08-30T01:06:34.184Z,14.54
2022-08-30T01:09:02.075Z,14.48
2022-08-30T01:11:29.399Z,14.38
2022-08-30T01:13:56.679Z,14.40
2022-08-30T01:16:25.573Z,14.38
2022-08-30T01:18:57.326Z,14.31
2022-08-30T01:21:40.388Z,14.34
2022-08-30T01:24:07.742Z,14.31
2022-08-30T01:26:35.163Z,14.33
2022-08-30T01:29:08.257Z,14.19
2022-08-30T01:31:37.115Z,14.09
2022-08-30T01:34:08.064Z,14.06
2022-08-30T01:36:37.798Z,14.14
2022-08-30T01:39:13.236Z,14.16
2022-08-30T01:41:40.144Z,14.23
2022-08-30T01:44:10.429Z,14.24
2022-08-30T01:46:45.827Z,14.20
2022-08-30T01:49:15.937Z,14.12
2022-08-30T01:51:42.886Z,14.06
2022-08-30T01:54:10.415Z,14.09
2022-08-30T01:56:37.684Z,14.17
2022-08-30T01:59:04.915Z,14.25
2022-08-30T02:01:33.719Z,14.19
2022-08-30T02:04:00.574Z,14.15
2022-08-30T02:06:27.587Z,14.14
2022-08-30T02:08:54.537Z,14.19
2022-08-30T02:11:21.476Z,14.21
2022-08-30T02:13:48.327Z,14.19
2022-08-30T02:16:17.951Z,14.23
2022-08-30T02:18:45.399Z,14.35
2022-08-30T02:21:12.948Z,14.25
2022-08-30T02:23:39.998Z,14.30
2022-08-30T02:26:06.924Z,14.30
2022-08-30T02:28:33.688Z,14.27
2022-08-30T02:31:01.269Z,14.14
2022-08-30T02:33:28.246Z,14.28
2022-08-30T02:35:56.236Z,14.32
2022-08-30T02:38:23.918Z,14.38
2022-08-30T02:40:51.490Z,14.44
2022-08-30T02:43:19.916Z,14.45
2022-08-30T02:45:46.859Z,14.47
2022-08-30T02:48:14.057Z,14.42
2022-08-30T02:50:45.735Z,14.42
2022-08-30T02:53:14.438Z,14.47
2022-08-30T02:55:43.485Z,14.49
2022-08-30T02:58:10.786Z,14.52
2022-08-30T03:00:37.956Z,14.52
2022-08-30T03:03:05.044Z,14.57
2022-08-30T03:05:33.587Z,14.57
2022-08-30T03:08:00.777Z,14.62
2022-08-30T03:10:28.936Z,14.61
2022-08-30T03:12:56.357Z,14.54
2022-08-30T03:15:26.748Z,14.55
2022-08-30T03:17:55.038Z,14.53
2022-08-30T03:20:22.249Z,14.56
2022-08-30T03:22:49.095Z,14.43
2022-08-30T03:25:16.693Z,14.48
2022-08-30T03:27:43.539Z,14.55
2022-08-30T03:30:10.967Z,14.60
2022-08-30T03:32:37.857Z,14.61
2022-08-30T03:35:05.616Z,14.68
2022-08-30T03:37:32.656Z,14.67
2022-08-30T03:39:59.515Z,14.75
2022-08-30T03:42:26.397Z,14.73
2022-08-30T03:44:54.417Z,14.64
2022-08-30T03:47:21.285Z,14.62
2022-08-30T03:49:48.077Z,14.69
2022-08-30T03:52:14.906Z,14.70
2022-08-30T03:54:43.097Z,14.80
2022-08-30T03:57:13.360Z,14.77
2022-08-30T03:59:46.990Z,14.82
2022-08-30T04:02:13.910Z,14.86
2022-08-30T04:04:40.709Z,14.93
2022-08-30T04:07:07.536Z,14.75
2022-08-30T04:09:34.316Z,14.72
2022-08-30T04:12:01.107Z,14.69
2022-08-30T04:14:27.846Z,14.60
2022-08-30T04:16:54.594Z,14.58
2022-08-30T04:19:21.344Z,14.64
2022-08-30T04:21:48.017Z,14.76
2022-08-30T04:24:14.755Z,14.78
2022-08-30T04:26:41.434Z,14.87
2022-08-30T04:29:08.140Z,14.87
2022-08-30T04:31:34.884Z,14.87
2022-08-30T04:34:01.522Z,14.98
2022-08-30T04:36:28.291Z,14.92
2022-08-30T04:38:55.198Z,14.97
2022-08-30T04:41:24.712Z,14.79
2022-08-30T04:43:51.426Z,14.80
2022-08-30T04:46:19.438Z,14.77
2022-08-30T04:48:46.686Z,14.79
2022-08-30T04:51:15.764Z,14.93
2022-08-30T04:53:43.203Z,14.86
2022-08-30T04:56:16.526Z,14.95
2022-08-30T04:58:47.542Z,14.98
2022-08-30T05:01:18.801Z,14.81
2022-08-30T05:03:47.825Z,14.78
2022-08-30T05:06:15.298Z,14.75
2022-08-30T05:08:46.243Z,14.75
2022-08-30T05:11:14.896Z,14.77
2022-08-30T05:13:41.538Z,14.85
2022-08-30T05:16:08.873Z,14.85
2022-08-30T05:18:36.805Z,14.97
2022-08-30T05:21:12.755Z,14.98
2022-08-30T05:23:40.126Z,15.01
2022-08-30T05:26:10.012Z,15.01
2022-08-30T05:28:37.252Z,14.95
2022-08-30T05:31:13.902Z,14.98
2022-08-30T05:33:41.372Z,14.99
2022-08-30T05:36:08.910Z,14.92
2022-08-30T05:38:35.726Z,15.03
2022-08-30T05:41:07.829Z,15.09
2022-08-30T05:43:38.328Z,15.03
2022-08-30T05:46:08.373Z,15.01
2022-08-30T05:48:36.366Z,14.90
2022-08-30T05:51:23.479Z,15.02
2022-08-30T05:53:52.377Z,15.01
2022-08-30T05:56:25.827Z,15.02
2022-08-30T05:58:53.415Z,15.06
2022-08-30T06:01:24.915Z,15.17
2022-08-30T06:03:52.380Z,15.10
2022-08-30T06:06:19.263Z,15.14
2022-08-30T06:08:47.475Z,15.29
2022-08-30T06:11:15.506Z,15.18
2022-08-30T06:13:42.325Z,15.20
2022-08-30T06:16:12.537Z,15.16
2022-08-30T06:18:39.494Z,15.03
2022-08-30T06:21:06.550Z,15.14
2022-08-30T06:23:33.392Z,15.22
2022-08-30T06:26:05.417Z,15.21
2022-08-30T06:28:32.394Z,15.34
2022-08-30T06:30:59.301Z,15.31
2022-08-30T06:33:26.177Z,15.36
2022-08-30T06:35:58.807Z,15.44
2022-08-30T06:38:27.003Z,15.48
2022-08-30T06:40:53.919Z,15.63
2022-08-30T06:43:21.024Z,15.67
2022-08-30T06:45:48.114Z,15.84
2022-08-30T06:48:15.071Z,15.85
2022-08-30T06:50:42.241Z,15.78
2022-08-30T06:53:09.656Z,15.70
2022-08-30T06:55:37.497Z,15.79
2022-08-30T06:58:05.162Z,15.86
2022-08-30T07:00:31.934Z,16.10
2022-08-30T07:02:59.089Z,16.19
2022-08-30T07:05:25.894Z,16.12
2022-08-30T07:07:55.387Z,16.14
2022-08-30T07:10:22.147Z,15.93
2022-08-30T07:12:49.204Z,16.22
2022-08-30T07:15:16.459Z,16.23
2022-08-30T07:18:01.568Z,16.17
2022-08-30T07:20:39.911Z,16.26
2022-08-30T07:23:07.637Z,16.38
2022-08-30T07:25:34.468Z,16.34
2022-08-30T07:28:01.169Z,16.28
2022-08-30T07:30:27.947Z,16.36
2022-08-30T07:32:54.718Z,16.65
2022-08-30T07:35:21.546Z,16.73
2022-08-30T07:37:48.399Z,16.78
2022-08-30T07:40:15.353Z,16.74
2022-08-30T07:42:42.155Z,16.95
2022-08-30T07:45:09.898Z,17.06
2022-08-30T07:47:36.846Z,17.15
2022-08-30T07:50:06.426Z,17.19
2022-08-30T07:52:33.778Z,17.33
2022-08-30T07:55:01.519Z,17.59
2022-08-30T07:57:31.657Z,17.37
2022-08-30T07:59:58.427Z,17.49
2022-08-30T08:02:25.457Z,17.62
2022-08-30T08:04:52.396Z,18.22
2022-08-30T08:07:19.457Z,18.60
2022-08-30T08:09:46.216Z,18.71
2022-08-30T08:12:13.335Z,18.26
2022-08-30T08:14:41.511Z,18.81
2022-08-30T08:17:08.294Z,18.74
2022-08-30T08:19:35.064Z,18.74
2022-08-30T08:22:20.593Z,19.27
2022-08-30T08:24:47.796Z,19.59
2022-08-30T08:27:14.495Z,19.98
2022-08-30T08:29:41.267Z,20.12
2022-08-30T08:32:08.207Z,19.96
2022-08-30T08:34:36.074Z,20.32
2022-08-30T08:37:03.087Z,19.96
2022-08-30T08:39:29.874Z,20.12
2022-08-30T08:42:17.035Z,20.91
2022-08-30T08:45:00.459Z,20.20
2022-08-30T08:47:39.434Z,20.80
2022-08-30T08:50:12.544Z,20.98
2022-08-30T08:53:45.402Z,20.93
2022-08-30T08:56:15.927Z,20.90
2022-08-30T08:58:44.016Z,20.75
2022-08-30T09:01:13.406Z,21.40
2022-08-30T09:03:40.517Z,20.89
2022-08-30T09:06:45.245Z,21.13
2022-08-30T09:09:13.337Z,20.88
2022-08-30T09:11:40.996Z,21.09
2022-08-30T09:14:15.390Z,21.09
2022-08-30T09:16:47.177Z,21.55
2022-08-30T09:19:38.816Z,21.86
2022-08-30T09:22:42.756Z,21.90
2022-08-30T09:25:13.457Z,21.39
2022-08-30T09:27:42.524Z,22.09
2022-08-30T09:30:14.454Z,22.33
2022-08-30T09:32:54.996Z,22.35
2022-08-30T09:35:34.836Z,22.11
2022-08-30T09:38:10.336Z,21.89
2022-08-30T09:40:42.726Z,22.33
2022-08-30T09:43:16.707Z,22.68
2022-08-30T09:45:47.521Z,22.22
2022-08-30T09:48:40.996Z,22.93
2022-08-30T09:51:10.957Z,22.46
2022-08-30T09:54:16.752Z,22.53
2022-08-30T09:56:55.312Z,23.24
2022-08-30T09:59:49.429Z,24.02
2022-08-30T10:02:33.007Z,23.23
2022-08-30T10:05:27.107Z,23.79
2022-08-30T10:08:15.094Z,23.87
2022-08-30T10:11:04.397Z,23.57
2022-08-30T10:13:44.946Z,23.77
2022-08-30T10:16:19.605Z,23.74
2022-08-30T10:19:04.275Z,23.68
2022-08-30T10:21:41.086Z,24.14
2022-08-30T10:24:14.226Z,24.38
2022-08-30T10:27:07.817Z,24.27
2022-08-30T10:29:40.635Z,23.89
2022-08-30T10:32:24.924Z,24.33
2022-08-30T10:34:56.734Z,25.05
2022-08-30T10:37:29.196Z,24.98
2022-08-30T10:40:22.136Z,24.91
2022-08-30T10:42:49.847Z,24.67
2022-08-30T10:45:17.704Z,24.52
2022-08-30T10:48:00.830Z,24.83
2022-08-30T10:50:41.267Z,25.39
2022-08-30T10:53:22.476Z,25.10
2022-08-30T10:55:52.524Z,25.00
2022-08-30T10:58:19.666Z,25.08
2022-08-30T11:01:14.923Z,24.81
2022-08-30T11:04:09.297Z,25.11
2022-08-30T11:06:47.796Z,25.24
2022-08-30T11:09:44.777Z,25.03
2022-08-30T11:12:37.402Z,25.09
2022-08-30T11:15:25.203Z,25.27
2022-08-30T11:18:10.159Z,25.28
2022-08-30T11:20:47.053Z,25.59
2022-08-30T11:23:32.669Z,25.87
2022-08-30T11:26:08.967Z,25.62
2022-08-30T11:28:46.381Z,25.63
2022-08-30T11:31:22.633Z,26.12
2022-08-30T11:33:59.593Z,25.81
2022-08-30T11:36:37.766Z,25.82
2022-08-30T11:39:06.174Z,26.11
2022-08-30T11:41:42.095Z,25.96
2022-08-30T11:44:21.446Z,26.16
2022-08-30T11:46:49.905Z,26.20
2022-08-30T11:49:19.587Z,26.22
2022-08-30T11:52:26.252Z,26.04
2022-08-30T11:55:23.184Z,26.52
2022-08-30T11:57:52.526Z,26.54
2022-08-30T12:00:34.947Z,26.29
2022-08-30T12:03:05.627Z,26.37
2022-08-30T12:05:38.853Z,27.01
2022-08-30T12:08:20.675Z,27.29
2022-08-30T12:10:54.665Z,26.88
2022-08-30T12:13:37.058Z,26.79
2022-08-30T12:16:12.610Z,27.11
2022-08-30T12:19:00.919Z,27.12
2022-08-30T12:21:43.646Z,27.31
2022-08-30T12:24:21.495Z,27.10
2022-08-30T12:26:51.453Z,27.24
2022-08-30T12:29:29.978Z,27.25
2022-08-30T12:31:59.437Z,27.27
2022-08-30T12:34:30.846Z,27.12
2022-08-30T12:37:04.853Z,27.34
2022-08-30T12:39:43.696Z,27.12
2022-08-30T12:42:26.892Z,27.26
2022-08-30T12:44:57.988Z,26.95
2022-08-30T12:47:45.968Z,27.11
2022-08-30T12:50:22.209Z,27.37
2022-08-30T12:53:00.876Z,27.34
2022-08-30T12:55:35.899Z,27.51
2022-08-30T12:58:11.306Z,27.45
2022-08-30T13:00:39.730Z,27.74
2022-08-30T13:03:26.140Z,27.91
2022-08-30T13:05:57.610Z,27.80
2022-08-30T13:08:37.345Z,27.78
2022-08-30T13:11:08.507Z,27.54
2022-08-30T13:13:51.910Z,27.16
2022-08-30T13:16:20.725Z,27.31
2022-08-30T13:18:49.736Z,27.62
2022-08-30T13:21:21.875Z,27.30
2022-08-30T13:23:50.618Z,27.30
2022-08-30T13:26:21.090Z,27.40
2022-08-30T13:28:52.980Z,27.61
2022-08-30T13:31:20.501Z,27.47
2022-08-30T13:33:53.165Z,27.14
2022-08-30T13:36:23.053Z,26.96
2022-08-30T13:38:51.875Z,26.89
2022-08-30T13:41:20.904Z,26.91
2022-08-30T13:46:35.870Z,26.89
2022-08-30T13:49:06.522Z,26.96
2022-08-30T13:51:33.876Z,27.10
2022-08-30T13:54:02.652Z,27.10
2022-08-30T13:56:32.163Z,27.29
2022-08-30T13:58:59.666Z,27.19
2022-08-30T14:01:30.016Z,27.25
2022-08-30T14:04:16.752Z,27.21
2022-08-30T14:09:30.952Z,27.28
2022-08-30T14:11:57.736Z,27.43
2022-08-30T14:14:41.866Z,27.24
2022-08-30T14:17:09.907Z,27.40
2022-08-30T14:19:36.706Z,27.19
2022-08-30T14:22:03.623Z,27.14
2022-08-30T14:24:30.445Z,27.34
2022-08-30T14:26:57.231Z,27.18
2022-08-30T14:29:30.006Z,27.16
2022-08-30T14:31:58.575Z,27.16
2022-08-30T14:34:27.186Z,26.91
2022-08-30T14:36:54.167Z,27.01
2022-08-30T14:39:21.746Z,27.10
2022-08-30T14:41:51.268Z,27.03
2022-08-30T14:44:19.416Z,27.27
2022-08-30T14:46:46.606Z,27.23
2022-08-30T14:49:14.606Z,27.14
2022-08-30T14:51:42.417Z,26.81
2022-08-30T14:54:10.164Z,27.16
2022-08-30T14:56:38.115Z,27.18
2022-08-30T14:59:05.691Z,27.13
2022-08-30T15:01:32.696Z,27.16
2022-08-30T15:04:03.983Z,26.88
2022-08-30T15:06:34.904Z,26.59
2022-08-30T15:09:05.268Z,26.53
2022-08-30T15:11:33.272Z,26.35
2022-08-30T15:14:00.468Z,26.16
2022-08-30T15:16:33.068Z,26.14
2022-08-30T15:19:00.642Z,25.91
2022-08-30T15:21:35.916Z,25.88
2022-08-30T15:24:04.256Z,25.92
2022-08-30T15:26:31.525Z,25.77
2022-08-30T15:28:59.096Z,25.49
2022-08-30T15:31:28.560Z,25.17
2022-08-30T15:33:55.657Z,24.92
2022-08-30T15:36:24.374Z,24.83
2022-08-30T15:38:53.976Z,24.78
2022-08-30T15:41:20.957Z,24.86
2022-08-30T15:43:49.336Z,24.81
2022-08-30T15:46:22.687Z,24.74
2022-08-30T15:48:52.055Z,24.61
2022-08-30T15:51:19.286Z,24.57
2022-08-30T15:53:46.716Z,24.51
2022-08-30T15:56:14.184Z,24.39
2022-08-30T15:58:41.234Z,24.28
2022-08-30T16:01:08.267Z,24.06
2022-08-30T16:03:36.074Z,24.01
2022-08-30T16:06:04.863Z,24.05
2022-08-30T16:08:31.595Z,24.00
2022-08-30T16:10:58.357Z,23.91
2022-08-30T16:13:25.243Z,23.89
2022-08-30T16:15:52.152Z,23.81
2022-08-30T16:18:19.096Z,23.70
2022-08-30T16:20:45.937Z,23.74
2022-08-30T16:23:12.738Z,23.62
2022-08-30T16:25:41.235Z,23.44
2022-08-30T16:28:09.509Z,23.34
2022-08-30T16:30:36.880Z,23.26
2022-08-30T16:33:03.828Z,23.23
2022-08-30T16:35:30.634Z,23.22
2022-08-30T16:37:57.746Z,23.05
2022-08-30T16:40:24.572Z,22.94
2022-08-30T16:42:51.898Z,23.01
2022-08-30T16:45:19.260Z,22.99
2022-08-30T16:47:46.285Z,22.98
2022-08-30T16:50:13.245Z,22.69
2022-08-30T16:52:43.953Z,22.59
2022-08-30T16:55:11.031Z,22.39
2022-08-30T16:57:38.636Z,22.22
2022-08-30T17:00:13.291Z,22.28
2022-08-30T17:02:42.635Z,22.18
2022-08-30T17:05:21.746Z,21.98
2022-08-30T17:07:48.535Z,21.81
2022-08-30T17:10:15.495Z,21.75
2022-08-30T17:12:50.020Z,21.80
2022-08-30T17:15:19.986Z,21.96
2022-08-30T17:17:47.768Z,21.84
2022-08-30T17:20:15.556Z,21.75
2022-08-30T17:22:42.499Z,21.73
2022-08-30T17:25:13.317Z,21.43
2022-08-30T17:27:40.302Z,21.25
2022-08-30T17:30:08.796Z,21.36
2022-08-30T17:32:35.667Z,21.27
2022-08-30T17:35:02.737Z,21.13
2022-08-30T17:37:33.460Z,21.09
2022-08-30T17:40:00.746Z,21.14
2022-08-30T17:42:29.735Z,21.03
2022-08-30T17:44:58.029Z,21.08
2022-08-30T17:47:28.137Z,20.89
2022-08-30T17:49:55.652Z,20.70
2022-08-30T17:52:22.417Z,20.88
2022-08-30T17:54:50.578Z,20.85
2022-08-30T17:57:17.980Z,20.83
2022-08-30T17:59:45.719Z,20.65
2022-08-30T18:02:13.787Z,20.57
2022-08-30T18:04:42.008Z,20.52
2022-08-30T18:07:11.993Z,20.35
2022-08-30T18:09:39.822Z,20.29
2022-08-30T18:12:07.407Z,20.29
2022-08-30T18:14:34.207Z,20.21
2022-08-30T18:17:02.796Z,20.11
2022-08-30T18:19:30.458Z,20.08
2022-08-30T18:21:57.150Z,19.91
2022-08-30T18:24:24.594Z,20.04
2022-08-30T18:26:51.667Z,20.12
2022-08-30T18:29:29.384Z,20.03
2022-08-30T18:32:02.132Z,20.01
2022-08-30T18:34:29.200Z,19.94
2022-08-30T18:36:56.301Z,19.94
2022-08-30T18:39:23.223Z,19.82
2022-08-30T18:41:51.085Z,19.67
2022-08-30T18:44:28.262Z,19.63
2022-08-30T18:46:57.585Z,19.53
2022-08-30T18:49:27.966Z,19.49
2022-08-30T18:51:54.748Z,19.37
2022-08-30T18:54:21.822Z,19.28
2022-08-30T18:56:49.678Z,19.11
2022-08-30T18:59:17.463Z,19.01
2022-08-30T19:01:46.877Z,18.86
2022-08-30T19:04:29.658Z,18.82
2022-08-30T19:07:03.377Z,18.84
2022-08-30T19:09:30.591Z,18.74
2022-08-30T19:11:57.340Z,18.63
2022-08-30T19:14:24.273Z,18.66
2022-08-30T19:16:56.372Z,18.89
2022-08-30T19:19:23.705Z,18.91
2022-08-30T19:21:50.486Z,18.80
2022-08-30T19:24:17.915Z,18.80
2022-08-30T19:26:46.856Z,18.78
2022-08-30T19:29:14.473Z,18.78
2022-08-30T19:31:42.300Z,18.59
2022-08-30T19:34:09.168Z,18.70
2022-08-30T19:36:36.273Z,18.61
2022-08-30T19:39:04.066Z,18.63
2022-08-30T19:41:31.026Z,18.61
2022-08-30T19:43:58.758Z,18.61
2022-08-30T19:46:30.008Z,18.42
2022-08-30T19:49:01.193Z,18.44
2022-08-30T19:51:28.268Z,18.28
2022-08-30T19:53:56.445Z,18.38
2022-08-30T19:56:26.636Z,18.38
2022-08-30T19:58:54.054Z,18.46
2022-08-30T20:01:32.719Z,18.45
2022-08-30T20:04:02.163Z,18.51
2022-08-30T20:06:30.041Z,18.36
2022-08-30T20:08:58.244Z,18.25
2022-08-30T20:11:28.456Z,18.22
2022-08-30T20:13:56.128Z,18.31
2022-08-30T20:16:35.546Z,18.19
2022-08-30T20:19:06.263Z,18.23
2022-08-30T20:21:33.291Z,18.29
2022-08-30T20:24:01.028Z,18.31
2022-08-30T20:26:33.879Z,18.22
2022-08-30T20:29:02.780Z,18.25
2022-08-30T20:31:29.631Z,18.24
2022-08-30T20:33:56.407Z,18.23
2022-08-30T20:36:23.106Z,18.24
2022-08-30T20:38:50.225Z,18.11
2022-08-30T20:41:18.422Z,18.05
2022-08-30T20:43:45.832Z,18.04
2022-08-30T20:46:16.014Z,18.03
2022-08-30T20:48:43.596Z,18.01
2022-08-30T20:51:12.734Z,17.94
2022-08-30T20:53:39.450Z,17.89
2022-08-30T20:56:11.878Z,17.90
2022-08-30T20:58:38.550Z,17.78
2022-08-30T21:01:08.292Z,17.76
2022-08-30T21:03:34.956Z,17.78
2022-08-30T21:06:01.760Z,17.84
2022-08-30T21:08:28.462Z,17.72
2022-08-30T21:10:55.279Z,17.54
2022-08-30T21:13:22.476Z,17.37
2022-08-30T21:15:54.791Z,17.47
2022-08-30T21:18:22.035Z,17.44
2022-08-30T21:20:48.712Z,17.39
2022-08-30T21:23:15.351Z,17.44
2022-08-30T21:25:42.962Z,17.37
2022-08-30T21:28:10.134Z,17.54
2022-08-30T21:30:37.594Z,17.52
2022-08-30T21:33:05.959Z,17.51
2022-08-30T21:35:51.585Z,17.46
2022-08-30T21:38:19.095Z,17.37
2022-08-30T21:40:46.963Z,17.08
2022-08-30T21:43:13.825Z,16.99
2022-08-30T21:45:42.130Z,16.95
2022-08-30T21:48:10.306Z,17.01
2022-08-30T21:50:43.876Z,16.92
2022-08-30T21:53:10.763Z,16.91
2022-08-30T21:55:38.671Z,16.71
2022-08-30T21:58:05.446Z,16.50
2022-08-30T22:00:33.673Z,16.69
2022-08-30T22:03:00.555Z,16.62
2022-08-30T22:05:27.327Z,16.64
2022-08-30T22:07:54.010Z,16.66
2022-08-30T22:10:21.242Z,16.69
2022-08-30T22:12:48.011Z,16.51
2022-08-30T22:15:14.817Z,16.55
2022-08-30T22:17:43.167Z,16.51
2022-08-30T22:20:10.333Z,16.44
2022-08-30T22:22:37.980Z,16.45
2022-08-30T22:25:05.039Z,16.30
2022-08-30T22:27:31.725Z,16.30
2022-08-30T22:29:58.389Z,16.41
2022-08-30T22:32:25.036Z,16.40
2022-08-30T22:34:51.701Z,16.20
2022-08-30T22:37:18.466Z,16.12
2022-08-30T22:39:45.127Z,16.26
2022-08-30T22:42:11.803Z,16.30
2022-08-30T22:44:38.476Z,16.31
2022-08-30T22:47:05.250Z,16.40
2022-08-30T22:49:32.017Z,16.51
2022-08-30T22:51:58.675Z,16.33
2022-08-30T22:54:25.489Z,16.15
2022-08-30T22:56:53.428Z,16.19
2022-08-30T22:59:20.099Z,16.19
2022-08-30T23:01:49.275Z,16.10
2022-08-30T23:04:16.235Z,16.05
2022-08-30T23:06:49.943Z,15.87
2022-08-30T23:09:17.294Z,16.06
2022-08-30T23:11:43.968Z,16.05
2022-08-30T23:14:10.851Z,15.90
2022-08-30T23:16:38.036Z,15.96
2022-08-30T23:19:05.013Z,15.89
2022-08-30T23:21:31.777Z,15.73
2022-08-30T23:24:18.115Z,15.86
2022-08-30T23:27:04.111Z,15.81
2022-08-30T23:29:50.331Z,15.83
2022-08-30T23:32:35.521Z,15.75
2022-08-30T23:35:29.534Z,15.79
2022-08-30T23:38:19.056Z,15.73
2022-08-30T23:41:04.165Z,15.78
2022-08-30T23:43:49.595Z,15.66
2022-08-30T23:46:34.816Z,15.65
2022-08-30T23:49:20.329Z,15.82
2022-08-30T23:52:06.095Z,15.77
2022-08-30T23:54:51.515Z,15.64
2022-08-30T23:57:42.256Z,15.69
